Time;durP1;ratioP1;P1;durP2;ratioP2;P2;SDS_P1;SDS_P2;PMS_P1;PMS_P2;Temp;Humidity;BMP_temperature;BMP_pressure;BME280_temperature;BME280_humidity;BME280_pressure;Samples;Min_cycle;Max_cycle;Signal;HPM_P1;HPM_P2
2023/05/30 00:01:41;;;;;;;22.38;5.25;;;9.30;99.90;;;;;;5078041;28;20096;-67
2023/05/30 00:04:07;;;;;;;24.58;6.45;;;9.40;99.90;;;;;;5046064;28;20495;-68
2023/05/30 00:06:33;;;;;;;26.52;5.60;;;9.40;99.90;;;;;;5047314;28;20080;-68
2023/05/30 00:09:00;;;;;;;22.13;5.75;;;9.40;99.90;;;;;;5038424;28;20034;-68
2023/05/30 00:11:28;;;;;;;27.38;6.05;;;9.50;99.90;;;;;;5064426;28;20072;-68
2023/05/30 00:13:55;;;;;;;22.15;6.05;;;9.50;99.90;;;;;;5042970;28;20049;-67
2023/05/30 00:16:22;;;;;;;19.58;6.28;;;9.50;99.90;;;;;;5037322;28;20052;-67
2023/05/30 00:18:49;;;;;;;20.33;6.03;;;9.60;99.90;;;;;;5038193;28;20048;-68
2023/05/30 00:21:17;;;;;;;26.13;6.68;;;9.70;99.90;;;;;;5031255;28;20131;-66
2023/05/30 00:23:45;;;;;;;30.00;6.40;;;9.70;99.90;;;;;;5048415;28;20060;-66
2023/05/30 00:26:11;;;;;;;18.75;6.47;;;9.70;99.90;;;;;;5045632;28;20472;-65
2023/05/30 00:28:37;;;;;;;24.77;6.18;;;9.80;99.90;;;;;;5041693;28;20037;-66
2023/05/30 00:31:03;;;;;;;20.95;6.72;;;9.80;99.90;;;;;;5060743;28;20045;-67
2023/05/30 00:33:29;;;;;;;25.50;5.97;;;9.90;99.90;;;;;;5036810;28;20065;-69
2023/05/30 00:35:54;;;;;;;26.25;5.70;;;9.90;99.90;;;;;;5084529;28;20103;-66
2023/05/30 00:38:20;;;;;;;26.67;6.70;;;10.00;99.90;;;;;;5044501;28;20039;-65
2023/05/30 00:40:46;;;;;;;19.23;5.60;;;10.10;99.90;;;;;;5082566;28;20060;-66
2023/05/30 00:43:12;;;;;;;22.77;6.70;;;10.10;99.90;;;;;;5038846;28;20210;-65
2023/05/30 00:45:37;;;;;;;19.52;5.20;;;10.20;99.90;;;;;;5036570;28;20052;-66
2023/05/30 00:48:05;;;;;;;23.10;5.97;;;10.20;99.90;;;;;;5061855;28;20664;-66
2023/05/30 00:50:32;;;;;;;17.02;5.47;;;10.20;99.90;;;;;;5036916;28;20041;-66
2023/05/30 00:52:59;;;;;;;22.00;6.25;;;10.30;99.90;;;;;;5038251;28;20048;-64
2023/05/30 00:55:26;;;;;;;18.42;5.57;;;10.30;99.90;;;;;;5041813;28;20041;-66
2023/05/30 00:57:52;;;;;;;21.70;5.65;;;10.30;99.90;;;;;;5041381;28;20037;-66
2023/05/30 01:00:19;;;;;;;24.75;5.60;;;10.40;99.90;;;;;;5045420;28;20089;-66
2023/05/30 01:02:46;;;;;;;19.20;5.82;;;10.40;99.90;;;;;;5047404;28;20045;-66
2023/05/30 01:05:14;;;;;;;20.63;5.68;;;10.40;99.90;;;;;;5048060;28;20115;-66
2023/05/30 01:07:43;;;;;;;16.17;5.60;;;10.40;99.90;;;;;;5046447;28;20555;-66
2023/05/30 01:10:10;;;;;;;22.52;5.75;;;10.40;99.90;;;;;;5074764;28;20044;-66
2023/05/30 01:12:59;;;;;;;19.38;5.63;;;10.40;99.90;;;;;;5039552;28;20218;-65
2023/05/30 01:15:41;;;;;;;22.65;5.60;;;10.50;99.90;;;;;;5036236;28;20046;-64
2023/05/30 01:18:27;;;;;;;20.75;5.82;;;10.50;99.90;;;;;;5033335;28;20041;-65
2023/05/30 01:20:57;;;;;;;18.45;5.80;;;10.50;99.90;;;;;;5030072;28;20493;-66
2023/05/30 01:23:30;;;;;;;22.20;6.28;;;10.50;99.90;;;;;;5043442;28;20076;-66
2023/05/30 01:26:07;;;;;;;19.25;6.00;;;10.50;99.90;;;;;;5044420;28;20037;-67
2023/05/30 01:28:36;;;;;;;18.38;6.15;;;10.50;99.90;;;;;;5036327;28;20507;-66
2023/05/30 01:31:02;;;;;;;24.20;6.25;;;10.50;99.90;;;;;;5043428;28;20049;-66
2023/05/30 01:33:30;;;;;;;22.77;6.47;;;10.60;99.90;;;;;;5040978;28;20047;-68
2023/05/30 01:35:56;;;;;;;25.67;7.15;;;10.60;99.90;;;;;;5045775;28;20075;-66
2023/05/30 01:38:21;;;;;;;17.63;6.78;;;10.60;99.90;;;;;;5073737;28;20078;-65
2023/05/30 01:40:53;;;;;;;22.67;7.50;;;10.60;99.90;;;;;;5044895;28;20071;-66
2023/05/30 01:43:53;;;;;;;23.17;6.55;;;10.60;99.90;;;;;;5039571;28;20040;-67
2023/05/30 01:46:32;;;;;;;18.42;6.80;;;10.60;99.90;;;;;;5042423;28;20088;-67
2023/05/30 01:49:10;;;;;;;19.90;7.03;;;10.60;99.90;;;;;;5028687;28;20037;-66
2023/05/30 01:51:41;;;;;;;16.38;5.50;;;10.60;99.90;;;;;;5033311;28;20040;-68
2023/05/30 01:54:08;;;;;;;19.10;6.57;;;10.60;99.90;;;;;;5038434;28;20082;-67
2023/05/30 01:56:35;;;;;;;21.83;6.75;;;10.70;99.90;;;;;;5037110;28;20041;-68
2023/05/30 01:59:03;;;;;;;22.08;6.55;;;10.70;99.90;;;;;;5038437;28;20115;-67
2023/05/30 02:01:29;;;;;;;21.17;6.28;;;10.60;99.90;;;;;;5044185;28;20464;-66
2023/05/30 02:03:55;;;;;;;21.35;6.30;;;10.60;99.90;;;;;;5041813;28;20399;-67
2023/05/30 02:06:22;;;;;;;20.70;6.22;;;10.60;99.90;;;;;;5039679;28;20036;-67
2023/05/30 02:08:48;;;;;;;22.40;5.85;;;10.60;99.90;;;;;;5040895;28;20131;-67
2023/05/30 02:11:14;;;;;;;13.75;5.50;;;10.60;99.90;;;;;;5033766;28;20128;-67
2023/05/30 02:13:40;;;;;;;17.73;5.97;;;10.60;99.90;;;;;;5038770;28;20049;-66
2023/05/30 02:16:06;;;;;;;23.67;5.22;;;10.60;99.90;;;;;;5029077;28;20052;-65
2023/05/30 02:18:34;;;;;;;20.35;5.80;;;10.60;99.90;;;;;;5039240;28;20080;-67
2023/05/30 02:20:59;;;;;;;19.10;5.97;;;10.60;99.90;;;;;;5041384;28;20254;-67
2023/05/30 02:23:25;;;;;;;19.27;6.25;;;10.60;99.90;;;;;;5040972;28;20055;-67
2023/05/30 02:25:51;;;;;;;16.98;5.68;;;10.60;99.90;;;;;;5031394;28;20049;-69
2023/05/30 02:28:16;;;;;;;23.52;6.13;;;10.60;99.90;;;;;;5036648;28;20036;-68
2023/05/30 02:30:42;;;;;;;22.55;5.40;;;10.60;99.90;;;;;;5064845;28;20063;-67
2023/05/30 02:33:08;;;;;;;22.33;6.03;;;10.60;99.90;;;;;;5039051;28;20032;-67
2023/05/30 02:35:33;;;;;;;22.63;6.22;;;10.60;99.90;;;;;;5045040;28;20083;-67
2023/05/30 02:37:59;;;;;;;16.65;5.78;;;10.60;99.90;;;;;;5043718;28;20136;-67
2023/05/30 02:40:24;;;;;;;19.20;5.82;;;10.60;99.90;;;;;;5045675;28;20041;-67
2023/05/30 02:42:50;;;;;;;22.73;5.90;;;10.60;99.90;;;;;;5045104;28;20139;-67
2023/05/30 02:45:16;;;;;;;17.38;5.28;;;10.60;99.90;;;;;;5073806;28;20519;-68
2023/05/30 02:47:41;;;;;;;22.80;5.72;;;10.60;99.90;;;;;;5039747;28;20037;-68
2023/05/30 02:50:07;;;;;;;22.80;6.18;;;10.60;99.90;;;;;;5031466;28;20036;-67
2023/05/30 02:52:33;;;;;;;20.77;5.82;;;10.50;99.90;;;;;;5030892;28;20056;-67
2023/05/30 02:54:59;;;;;;;25.90;5.80;;;10.50;99.90;;;;;;5042146;28;20487;-68
2023/05/30 02:57:25;;;;;;;21.20;5.57;;;10.50;99.90;;;;;;5046093;28;20045;-67
2023/05/30 02:59:51;;;;;;;28.02;5.95;;;10.60;99.90;;;;;;5042076;28;20045;-66
2023/05/30 03:02:16;;;;;;;17.13;6.07;;;10.50;99.90;;;;;;5041303;28;20037;-68
2023/05/30 03:04:46;;;;;;;16.85;5.47;;;10.50;99.90;;;;;;5034582;28;20389;-68
2023/05/30 03:07:13;;;;;;;18.77;5.47;;;10.50;99.90;;;;;;5037502;28;20404;-67
2023/05/30 03:09:40;;;;;;;20.20;5.85;;;10.60;99.90;;;;;;5034778;28;20048;-68
2023/05/30 03:12:06;;;;;;;21.63;5.97;;;10.50;99.90;;;;;;5062951;28;20119;-66
2023/05/30 03:14:32;;;;;;;21.88;6.82;;;10.50;99.90;;;;;;5045127;28;20041;-68
2023/05/30 03:16:57;;;;;;;18.10;5.82;;;10.50;99.90;;;;;;5043564;28;20591;-69
2023/05/30 03:19:23;;;;;;;18.83;6.28;;;10.50;99.90;;;;;;5035803;28;20488;-68
2023/05/30 03:21:49;;;;;;;20.88;6.00;;;10.50;99.90;;;;;;5030291;28;1076869;-67
2023/05/30 03:24:15;;;;;;;15.38;5.13;;;10.50;99.90;;;;;;5047514;28;20041;-67
2023/05/30 03:26:41;;;;;;;18.40;5.60;;;10.50;99.90;;;;;;5042232;28;20041;-67
2023/05/30 03:29:07;;;;;;;21.15;5.95;;;10.50;99.90;;;;;;5045990;28;20048;-68
2023/05/30 03:31:33;;;;;;;20.95;5.82;;;10.50;99.90;;;;;;5070344;28;20439;-67
2023/05/30 03:33:59;;;;;;;19.25;5.82;;;10.50;99.90;;;;;;5038172;28;20073;-67
2023/05/30 03:36:25;;;;;;;25.55;6.28;;;10.50;99.90;;;;;;5072841;28;20197;-68
2023/05/30 03:38:53;;;;;;;22.20;6.13;;;10.50;99.90;;;;;;5040011;28;20538;-66
2023/05/30 03:41:18;;;;;;;26.08;6.30;;;10.50;99.90;;;;;;5042925;28;20045;-67
2023/05/30 03:43:45;;;;;;;19.33;6.28;;;10.50;99.90;;;;;;5043053;28;20051;-68
2023/05/30 03:46:10;;;;;;;20.60;5.80;;;10.60;99.90;;;;;;5035155;28;20392;-68
2023/05/30 03:48:36;;;;;;;20.80;5.45;;;10.50;99.90;;;;;;5031828;28;20052;-67
2023/05/30 03:51:02;;;;;;;21.20;6.18;;;10.60;99.90;;;;;;5033933;28;20041;-68
2023/05/30 03:53:27;;;;;;;20.02;6.10;;;10.60;99.90;;;;;;5074995;28;20139;-68
2023/05/30 03:55:53;;;;;;;17.15;6.05;;;10.60;99.90;;;;;;5069035;28;20127;-67
2023/05/30 03:58:18;;;;;;;15.30;5.78;;;10.60;99.90;;;;;;5037192;28;20087;-69
2023/05/30 04:00:44;;;;;;;21.90;6.05;;;10.60;99.90;;;;;;5053912;28;20060;-67
2023/05/30 04:03:09;;;;;;;19.40;6.00;;;10.60;99.90;;;;;;5075193;28;20455;-67
2023/05/30 04:05:35;;;;;;;22.90;5.97;;;10.70;99.90;;;;;;5037447;28;20033;-67
2023/05/30 04:08:01;;;;;;;24.05;6.10;;;10.70;99.90;;;;;;5036584;28;20396;-68
2023/05/30 04:10:26;;;;;;;19.13;6.32;;;10.70;99.90;;;;;;5070935;28;20090;-67
2023/05/30 04:12:52;;;;;;;26.02;5.78;;;10.70;99.90;;;;;;5031467;28;20049;-68
2023/05/30 04:15:17;;;;;;;24.02;6.25;;;10.80;99.90;;;;;;5035093;28;20040;-67
2023/05/30 04:17:43;;;;;;;18.65;6.57;;;10.80;99.90;;;;;;5073596;28;20050;-68
2023/05/30 04:20:09;;;;;;;23.92;6.80;;;10.80;99.90;;;;;;5033261;28;20076;-68
2023/05/30 04:22:35;;;;;;;19.58;6.25;;;10.80;99.90;;;;;;5037255;28;20056;-67
2023/05/30 04:25:01;;;;;;;20.92;6.28;;;10.80;99.90;;;;;;5039407;28;20063;-67
2023/05/30 04:27:27;;;;;;;27.80;6.25;;;10.90;99.90;;;;;;5043140;28;20037;-67
2023/05/30 04:29:53;;;;;;;19.80;6.10;;;10.90;99.90;;;;;;5072551;28;20055;-66
2023/05/30 04:32:19;;;;;;;17.25;6.50;;;10.90;99.90;;;;;;5041485;28;20037;-68
2023/05/30 04:34:45;;;;;;;17.38;6.18;;;10.90;99.90;;;;;;5036601;28;20116;-68
2023/05/30 04:37:11;;;;;;;17.50;5.85;;;10.90;99.90;;;;;;5067543;28;20049;-68
2023/05/30 04:39:37;;;;;;;24.25;6.35;;;11.00;99.90;;;;;;5039372;28;20041;-68
2023/05/30 04:42:04;;;;;;;22.90;6.68;;;11.00;99.90;;;;;;5035259;28;20511;-67
2023/05/30 04:44:37;;;;;;;19.70;5.78;;;11.00;99.90;;;;;;5071005;28;20083;-68
2023/05/30 04:47:10;;;;;;;25.50;6.53;;;11.10;99.90;;;;;;5067175;28;20123;-68
2023/05/30 04:49:39;;;;;;;24.83;6.22;;;11.10;99.90;;;;;;5033971;28;20053;-67
2023/05/30 04:52:08;;;;;;;17.85;5.57;;;11.10;99.90;;;;;;5036244;28;20115;-67
2023/05/30 04:54:34;;;;;;;21.98;6.18;;;11.10;99.90;;;;;;5036484;28;20044;-67
2023/05/30 04:56:59;;;;;;;18.77;5.97;;;11.20;99.90;;;;;;5031648;28;20025;-68
2023/05/30 04:59:25;;;;;;;16.70;5.95;;;11.20;99.90;;;;;;5034652;28;20037;-68
2023/05/30 05:01:52;;;;;;;22.17;6.60;;;11.20;99.90;;;;;;5022462;28;20045;-68
2023/05/30 05:04:17;;;;;;;22.05;6.05;;;11.20;99.90;;;;;;5038460;28;20045;-67
2023/05/30 05:06:43;;;;;;;25.48;7.03;;;11.30;99.90;;;;;;5034724;28;20041;-67
2023/05/30 05:09:10;;;;;;;22.55;6.75;;;11.30;99.90;;;;;;5035620;28;20037;-67
2023/05/30 05:11:36;;;;;;;19.17;6.50;;;11.40;99.90;;;;;;5068531;28;20074;-68
2023/05/30 05:14:02;;;;;;;23.38;6.68;;;11.40;99.90;;;;;;5038122;28;20034;-67
2023/05/30 05:16:27;;;;;;;15.13;5.18;;;11.50;99.90;;;;;;5036837;28;20048;-67
2023/05/30 05:18:53;;;;;;;17.52;6.32;;;11.50;99.90;;;;;;5068924;28;20054;-68
2023/05/30 05:21:18;;;;;;;17.27;6.03;;;11.50;99.90;;;;;;5069647;28;20395;-67
2023/05/30 05:23:44;;;;;;;19.30;6.40;;;11.50;99.90;;;;;;5065233;28;20082;-68
2023/05/30 05:26:10;;;;;;;20.42;6.07;;;11.60;99.90;;;;;;5034344;28;20048;-67
2023/05/30 05:28:36;;;;;;;15.82;5.97;;;11.70;99.90;;;;;;5040634;28;20048;-68
2023/05/30 05:31:01;;;;;;;17.67;5.95;;;11.70;99.90;;;;;;5074710;28;20559;-67
2023/05/30 05:33:27;;;;;;;19.52;6.43;;;11.70;99.90;;;;;;5039004;28;20045;-68
2023/05/30 05:35:52;;;;;;;18.58;6.30;;;11.70;99.90;;;;;;5066643;28;20216;-66
2023/05/30 05:38:18;;;;;;;23.58;6.65;;;11.80;99.90;;;;;;5031728;28;20039;-68
2023/05/30 05:40:43;;;;;;;22.95;6.20;;;11.90;99.90;;;;;;5037087;28;20045;-67
2023/05/30 05:43:09;;;;;;;22.02;6.25;;;11.90;99.90;;;;;;5038067;28;20037;-67
2023/05/30 05:45:35;;;;;;;22.98;6.68;;;12.00;99.90;;;;;;5039571;28;20036;-69
2023/05/30 05:48:00;;;;;;;22.55;6.47;;;12.00;99.90;;;;;;5035711;28;20125;-69
2023/05/30 05:50:26;;;;;;;19.67;5.80;;;12.10;99.90;;;;;;5032505;28;20048;-68
2023/05/30 05:52:52;;;;;;;18.95;6.25;;;12.10;99.90;;;;;;5055087;28;20047;-68
2023/05/30 05:55:17;;;;;;;21.58;5.75;;;12.20;99.90;;;;;;5073984;28;20048;-67
2023/05/30 05:57:43;;;;;;;24.00;7.00;;;12.20;99.90;;;;;;5034779;28;20037;-69
2023/05/30 06:00:09;;;;;;;18.73;5.68;;;12.30;99.90;;;;;;5068812;28;20049;-68
2023/05/30 06:02:36;;;;;;;22.88;6.28;;;12.20;99.90;;;;;;5047087;28;20068;-67
2023/05/30 06:05:01;;;;;;;22.52;6.57;;;12.30;99.90;;;;;;5043721;28;20391;-67
2023/05/30 06:07:27;;;;;;;18.90;6.13;;;12.30;99.90;;;;;;5040202;28;20352;-67
2023/05/30 06:09:52;;;;;;;19.58;6.50;;;12.40;99.90;;;;;;5070412;28;20043;-67
2023/05/30 06:12:18;;;;;;;20.48;6.50;;;12.40;99.90;;;;;;5040799;28;20116;-66
2023/05/30 06:14:43;;;;;;;20.73;5.75;;;12.50;99.90;;;;;;5038116;28;20041;-67
2023/05/30 06:17:09;;;;;;;19.15;5.93;;;12.40;99.90;;;;;;5038137;28;20080;-68
2023/05/30 06:19:35;;;;;;;22.55;6.28;;;12.40;99.90;;;;;;5034311;28;20040;-67
2023/05/30 06:22:00;;;;;;;20.10;5.90;;;12.50;99.90;;;;;;5040722;28;20068;-68
2023/05/30 06:24:26;;;;;;;24.30;5.65;;;12.50;99.90;;;;;;5033606;28;20050;-68
2023/05/30 06:26:51;;;;;;;16.58;5.57;;;12.50;99.90;;;;;;5039795;28;20029;-68
2023/05/30 06:29:17;;;;;;;22.38;6.15;;;12.50;99.90;;;;;;5031744;28;20077;-67
2023/05/30 06:31:42;;;;;;;16.65;6.60;;;12.60;99.90;;;;;;5033304;28;20053;-67
2023/05/30 06:34:08;;;;;;;15.88;6.05;;;12.60;99.90;;;;;;5076814;28;20051;-65
2023/05/30 06:36:33;;;;;;;18.77;5.97;;;12.60;99.90;;;;;;5045492;28;20041;-66
2023/05/30 06:38:59;;;;;;;23.55;6.07;;;12.70;99.90;;;;;;5038538;28;20488;-66
2023/05/30 06:41:26;;;;;;;19.25;6.63;;;12.70;99.90;;;;;;5042190;28;20048;-68
2023/05/30 06:43:51;;;;;;;23.17;6.80;;;12.70;99.90;;;;;;5039152;28;20131;-66
2023/05/30 06:46:17;;;;;;;19.10;6.00;;;12.70;99.90;;;;;;5039453;28;20124;-67
2023/05/30 06:48:42;;;;;;;16.27;5.75;;;12.70;99.90;;;;;;5036536;28;20503;-67
2023/05/30 06:51:08;;;;;;;19.48;5.93;;;12.70;99.90;;;;;;5039149;28;20044;-66
2023/05/30 06:53:34;;;;;;;22.92;5.85;;;12.80;99.90;;;;;;5033938;28;20473;-66
2023/05/30 06:55:59;;;;;;;18.90;5.82;;;12.80;99.90;;;;;;5038250;28;20546;-66
2023/05/30 06:58:25;;;;;;;19.13;5.82;;;12.80;99.90;;;;;;5034841;28;20076;-66
2023/05/30 07:00:51;;;;;;;19.75;5.53;;;12.80;99.90;;;;;;5036003;28;20511;-66
2023/05/30 07:03:17;;;;;;;16.60;5.90;;;12.80;99.90;;;;;;5033515;28;20033;-66
2023/05/30 07:05:42;;;;;;;18.55;5.90;;;12.80;99.90;;;;;;5039904;28;20452;-66
2023/05/30 07:08:08;;;;;;;19.80;5.80;;;12.80;99.90;;;;;;5036208;28;20037;-66
2023/05/30 07:10:34;;;;;;;18.08;5.95;;;12.90;99.90;;;;;;5074034;28;20080;-66
2023/05/30 07:13:00;;;;;;;16.90;5.63;;;12.90;99.90;;;;;;5044300;28;20048;-66
2023/05/30 07:15:27;;;;;;;16.63;5.35;;;12.90;99.90;;;;;;5071292;28;20038;-67
2023/05/30 07:17:52;;;;;;;16.35;6.43;;;12.90;99.90;;;;;;5040107;28;20045;-67
2023/05/30 07:20:22;;;;;;;19.95;5.57;;;12.90;99.90;;;;;;5044136;28;20405;-66
2023/05/30 07:22:48;;;;;;;19.10;5.32;;;12.90;99.90;;;;;;5045124;28;20041;-65
2023/05/30 07:25:14;;;;;;;17.02;4.88;;;12.80;99.90;;;;;;5047047;28;20538;-67
2023/05/30 07:27:40;;;;;;;18.27;5.13;;;12.80;99.90;;;;;;5046549;28;20049;-66
2023/05/30 07:30:06;;;;;;;15.93;5.07;;;12.80;99.90;;;;;;5038596;28;20044;-66
2023/05/30 07:32:31;;;;;;;19.20;5.82;;;12.80;99.90;;;;;;5039252;28;20130;-66
2023/05/30 07:34:57;;;;;;;19.17;5.78;;;12.80;99.90;;;;;;5077843;28;20131;-66
2023/05/30 07:37:23;;;;;;;16.30;5.18;;;12.70;99.90;;;;;;5078918;28;20037;-66
2023/05/30 07:39:48;;;;;;;14.60;5.07;;;12.70;99.90;;;;;;5077557;28;20463;-67
2023/05/30 07:42:14;;;;;;;17.13;4.93;;;12.70;99.90;;;;;;5046685;28;20044;-66
2023/05/30 07:44:39;;;;;;;12.90;5.20;;;12.70;99.90;;;;;;5049446;28;20510;-67
2023/05/30 07:47:05;;;;;;;15.10;4.65;;;12.70;99.90;;;;;;5046999;28;20047;-66
2023/05/30 07:49:31;;;;;;;17.80;5.03;;;12.70;99.90;;;;;;5045356;28;20377;-66
2023/05/30 07:51:57;;;;;;;11.65;4.78;;;12.70;99.90;;;;;;5042062;28;20045;-67
2023/05/30 07:54:22;;;;;;;17.50;5.35;;;12.70;99.90;;;;;;5043508;28;20041;-68
2023/05/30 07:56:48;;;;;;;10.90;4.95;;;12.70;99.90;;;;;;5083585;28;20044;-67
2023/05/30 07:59:13;;;;;;;15.77;5.10;;;12.70;99.90;;;;;;5033832;28;20083;-67
2023/05/30 08:01:39;;;;;;;11.25;4.30;;;12.70;99.90;;;;;;5041850;28;20041;-67
2023/05/30 08:04:04;;;;;;;13.88;4.68;;;12.70;99.90;;;;;;5047299;28;20041;-67
2023/05/30 08:06:31;;;;;;;15.60;4.60;;;12.70;99.90;;;;;;5081839;28;20048;-68
2023/05/30 08:08:56;;;;;;;12.80;3.25;;;12.70;99.90;;;;;;5049182;28;20060;-67
2023/05/30 08:11:22;;;;;;;18.83;4.78;;;12.80;99.90;;;;;;5084365;28;20056;-68
2023/05/30 08:13:48;;;;;;;15.02;4.60;;;12.80;99.90;;;;;;5044765;28;20041;-66
2023/05/30 08:16:14;;;;;;;16.70;5.18;;;12.80;99.90;;;;;;5046162;28;20049;-67
2023/05/30 08:18:41;;;;;;;19.17;5.13;;;12.80;99.90;;;;;;5033289;28;20095;-67
2023/05/30 08:21:07;;;;;;;11.88;4.47;;;12.80;99.90;;;;;;5038421;28;20044;-68
2023/05/30 08:23:33;;;;;;;11.95;5.00;;;12.70;99.90;;;;;;5046468;28;20095;-67
2023/05/30 08:25:58;;;;;;;11.93;4.22;;;12.70;99.90;;;;;;5084865;28;20041;-67
2023/05/30 08:28:24;;;;;;;11.60;4.75;;;12.80;99.90;;;;;;5066367;28;20382;-68
2023/05/30 08:30:50;;;;;;;15.30;5.45;;;12.70;99.90;;;;;;5038912;28;20048;-67
2023/05/30 08:33:19;;;;;;;13.85;5.50;;;12.70;99.90;;;;;;5045288;28;20065;-69
2023/05/30 08:35:45;;;;;;;12.68;4.88;;;12.70;99.90;;;;;;5084918;28;20044;-70
2023/05/30 08:38:11;;;;;;;16.55;5.03;;;12.70;99.90;;;;;;5043952;28;20095;-68
2023/05/30 08:40:42;;;;;;;14.55;4.60;;;12.80;99.90;;;;;;5039806;28;20059;-67
2023/05/30 08:43:08;;;;;;;13.13;4.80;;;12.80;99.90;;;;;;5047865;28;20037;-68
2023/05/30 08:45:34;;;;;;;19.67;4.82;;;12.80;99.90;;;;;;5049504;28;20037;-69
2023/05/30 08:48:01;;;;;;;12.75;5.18;;;12.80;99.90;;;;;;5041215;28;20033;-68
2023/05/30 08:50:29;;;;;;;14.40;4.95;;;12.80;99.90;;;;;;5047512;28;20072;-68
2023/05/30 08:53:03;;;;;;;16.83;5.85;;;12.80;99.90;;;;;;5078874;28;20132;-68
2023/05/30 08:55:37;;;;;;;17.80;6.07;;;12.80;99.90;;;;;;5046309;28;20037;-68
2023/05/30 08:58:20;;;;;;;13.90;5.40;;;12.80;99.90;;;;;;5042814;28;20041;-67
2023/05/30 09:00:48;;;;;;;18.48;5.47;;;12.90;99.90;;;;;;5067863;28;20471;-67
2023/05/30 09:03:15;;;;;;;14.48;4.90;;;13.00;99.90;;;;;;5079908;28;20512;-67
2023/05/30 09:05:42;;;;;;;13.63;4.60;;;13.00;99.90;;;;;;5049243;28;20048;-67
2023/05/30 09:08:08;;;;;;;13.85;4.70;;;13.10;99.90;;;;;;5042382;28;20068;-67
2023/05/30 09:10:41;;;;;;;9.75;4.75;;;13.20;99.90;;;;;;5047897;28;20052;-68
2023/05/30 09:13:07;;;;;;;14.60;5.30;;;13.20;99.90;;;;;;5043228;28;20041;-67
2023/05/30 09:15:32;;;;;;;11.73;4.30;;;13.20;99.90;;;;;;5084070;28;20028;-67
2023/05/30 09:17:58;;;;;;;14.75;5.28;;;13.30;99.90;;;;;;5046755;28;20041;-67
2023/05/30 09:20:28;;;;;;;11.60;4.32;;;13.40;99.90;;;;;;5042835;28;20124;-69
2023/05/30 09:22:54;;;;;;;13.00;5.20;;;13.30;99.90;;;;;;5038679;28;20037;-68
2023/05/30 09:25:19;;;;;;;15.15;5.20;;;13.30;99.90;;;;;;5044993;28;20472;-67
2023/05/30 09:27:50;;;;;;;12.10;4.85;;;13.20;99.90;;;;;;5037297;28;20037;-68
2023/05/30 09:30:16;;;;;;;13.30;4.97;;;13.20;99.90;;;;;;5030223;28;20041;-68
2023/05/30 09:32:58;;;;;;;11.27;4.80;;;13.30;99.90;;;;;;5040688;28;20037;-68
2023/05/30 09:35:25;;;;;;;15.30;4.80;;;13.40;99.90;;;;;;5042652;28;20112;-68
2023/05/30 09:37:51;;;;;;;7.95;3.72;;;13.50;99.90;;;;;;5041160;28;20392;-67
2023/05/30 09:40:16;;;;;;;8.60;3.70;;;13.70;99.90;;;;;;5030049;28;20049;-66
2023/05/30 09:42:53;;;;;;;12.40;4.40;;;13.70;99.90;;;;;;5073358;28;20044;-69
2023/05/30 09:45:22;;;;;;;8.88;3.50;;;13.70;99.90;;;;;;5077143;28;20077;-67
2023/05/30 09:47:49;;;;;;;7.60;3.00;;;13.80;99.90;;;;;;5034030;28;20037;-66
2023/05/30 09:50:20;;;;;;;10.90;3.40;;;13.70;99.90;;;;;;5047226;28;20045;-67
2023/05/30 09:52:51;;;;;;;6.78;3.30;;;13.60;99.90;;;;;;5044696;28;20052;-66
2023/05/30 09:55:18;;;;;;;6.00;3.03;;;13.60;99.90;;;;;;5074221;28;20503;-67
2023/05/30 09:57:49;;;;;;;14.48;3.42;;;13.60;99.90;;;;;;5035112;28;20068;-66
2023/05/30 10:00:26;;;;;;;7.88;3.63;;;13.70;99.90;;;;;;5078758;28;20205;-66
2023/05/30 10:02:53;;;;;;;8.85;3.35;;;13.80;99.90;;;;;;5030670;28;20042;-67
2023/05/30 10:05:27;;;;;;;10.02;4.18;;;13.90;99.90;;;;;;5045618;28;20044;-67
2023/05/30 10:07:55;;;;;;;9.70;3.63;;;14.00;99.90;;;;;;5043413;28;20074;-66
2023/05/30 10:10:22;;;;;;;6.50;3.20;;;14.20;99.90;;;;;;5043683;28;20132;-69
2023/05/30 10:12:50;;;;;;;8.32;3.13;;;14.30;99.90;;;;;;5044288;28;20861;-67
2023/05/30 10:15:16;;;;;;;7.53;2.97;;;14.30;99.90;;;;;;5079732;28;20056;-67
2023/05/30 10:18:00;;;;;;;9.50;3.30;;;14.20;99.90;;;;;;5040383;28;20428;-67
2023/05/30 10:20:27;;;;;;;7.90;2.88;;;14.20;99.90;;;;;;5062136;28;20103;-67
2023/05/30 10:22:53;;;;;;;5.28;3.03;;;14.30;99.90;;;;;;5077170;28;20392;-66
2023/05/30 10:25:20;;;;;;;5.80;3.42;;;14.30;99.90;;;;;;5080332;28;20033;-67
2023/05/30 10:27:51;;;;;;;9.85;3.60;;;14.40;99.90;;;;;;5039570;28;20523;-66
2023/05/30 10:30:35;;;;;;;9.35;3.47;;;14.40;99.90;;;;;;5039819;28;20041;-67
2023/05/30 10:33:11;;;;;;;6.20;3.05;;;14.40;99.90;;;;;;5041144;28;20106;-67
2023/05/30 10:35:37;;;;;;;4.22;3.17;;;14.50;99.90;;;;;;5046854;28;20057;-66
2023/05/30 10:38:08;;;;;;;7.75;3.00;;;14.60;99.90;;;;;;5044505;28;20506;-67
2023/05/30 10:41:00;;;;;;;6.28;3.20;;;14.70;99.90;;;;;;5048904;28;20041;-67
2023/05/30 10:43:56;;;;;;;5.18;2.92;;;14.80;99.90;;;;;;5067070;28;20032;-68
2023/05/30 10:46:58;;;;;;;5.03;2.90;;;14.90;99.90;;;;;;5042775;28;20541;-67
2023/05/30 10:49:26;;;;;;;4.75;2.63;;;14.80;99.90;;;;;;5039737;28;20049;-66
2023/05/30 10:52:06;;;;;;;7.60;3.80;;;14.80;99.90;;;;;;5047715;28;20084;-68
2023/05/30 10:54:34;;;;;;;6.00;3.17;;;14.70;99.90;;;;;;5046305;28;20437;-65
2023/05/30 10:57:31;;;;;;;5.00;2.60;;;14.70;99.90;;;;;;5044966;28;20483;-67
2023/05/30 11:00:06;;;;;;;5.55;3.22;;;14.60;99.90;;;;;;5042968;28;20426;-66
2023/05/30 11:02:36;;;;;;;5.28;2.58;;;14.60;99.90;;;;;;5045953;28;20475;-67
2023/05/30 11:05:07;;;;;;;5.30;2.90;;;14.70;99.90;;;;;;5047820;28;20041;-65
2023/05/30 11:07:37;;;;;;;8.38;2.42;;;14.60;99.90;;;;;;5077774;28;20041;-66
2023/05/30 11:10:11;;;;;;;6.25;3.00;;;14.60;99.90;;;;;;5048632;28;20037;-67
2023/05/30 11:12:44;;;;;;;5.38;2.80;;;14.50;99.90;;;;;;5044513;28;20063;-66
2023/05/30 11:15:32;;;;;;;5.32;2.85;;;14.50;99.90;;;;;;5049008;28;20068;-66
2023/05/30 11:17:58;;;;;;;5.22;2.95;;;14.50;99.90;;;;;;5045024;28;20056;-67
2023/05/30 11:20:23;;;;;;;5.13;2.67;;;14.50;99.90;;;;;;5081586;28;20052;-66
2023/05/30 11:23:01;;;;;;;5.38;1.95;;;14.50;99.90;;;;;;5079674;28;20047;-67
2023/05/30 11:25:32;;;;;;;6.47;2.20;;;14.50;99.90;;;;;;5049213;28;20048;-67
2023/05/30 11:28:03;;;;;;;4.40;2.22;;;14.40;99.90;;;;;;5030443;28;20048;-67
2023/05/30 11:30:44;;;;;;;4.43;2.50;;;14.40;99.90;;;;;;5036160;28;20547;-67
2023/05/30 11:33:13;;;;;;;3.30;2.50;;;14.30;99.90;;;;;;5048908;28;20307;-68
2023/05/30 11:35:43;;;;;;;4.28;2.50;;;14.30;99.90;;;;;;5052679;28;20048;-67
2023/05/30 11:38:09;;;;;;;2.88;2.25;;;14.30;99.90;;;;;;5043897;28;20139;-67
2023/05/30 11:40:41;;;;;;;4.00;2.35;;;14.40;99.90;;;;;;5033101;28;20577;-67
2023/05/30 11:43:07;;;;;;;4.47;2.05;;;14.50;99.90;;;;;;5036398;28;20345;-66
2023/05/30 11:45:33;;;;;;;5.60;2.10;;;14.70;99.90;;;;;;5075413;28;20039;-67
2023/05/30 11:48:10;;;;;;;6.93;2.22;;;14.70;99.90;;;;;;5048104;28;20136;-68
2023/05/30 11:50:41;;;;;;;3.75;2.15;;;14.60;99.90;;;;;;5065662;28;20418;-68
2023/05/30 11:53:25;;;;;;;4.03;2.13;;;14.60;99.90;;;;;;5041985;28;20124;-70
2023/05/30 11:55:50;;;;;;;5.90;2.22;;;14.60;99.90;;;;;;5084797;28;20099;-66
2023/05/30 11:58:17;;;;;;;2.42;2.20;;;14.60;99.90;;;;;;5029040;28;20037;-65
2023/05/30 12:00:44;;;;;;;3.70;2.60;;;14.60;99.90;;;;;;5040071;28;20045;-65
2023/05/30 12:03:16;;;;;;;4.32;2.60;;;14.70;99.90;;;;;;5070926;28;20041;-66
2023/05/30 12:05:43;;;;;;;4.72;2.40;;;14.80;99.90;;;;;;5039746;28;20048;-68
2023/05/30 12:08:09;;;;;;;4.53;2.70;;;14.90;99.90;;;;;;5043272;28;20490;-67
2023/05/30 12:10:34;;;;;;;4.78;2.30;;;14.80;99.90;;;;;;5076241;28;20063;-66
2023/05/30 12:13:00;;;;;;;4.68;2.40;;;14.80;99.90;;;;;;5039324;28;20175;-67
2023/05/30 12:15:26;;;;;;;3.92;2.53;;;14.80;99.90;;;;;;5070053;28;20512;-67
2023/05/30 12:17:52;;;;;;;3.83;2.90;;;14.90;99.90;;;;;;5074887;28;20052;-68
2023/05/30 12:20:20;;;;;;;3.15;2.40;;;14.90;99.90;;;;;;5040997;28;20041;-67
2023/05/30 12:22:47;;;;;;;6.13;2.60;;;15.00;99.90;;;;;;5041749;28;20049;-66
2023/05/30 12:25:13;;;;;;;2.97;2.45;;;15.00;99.90;;;;;;5043157;28;20033;-67
2023/05/30 12:27:43;;;;;;;4.18;2.53;;;15.00;99.90;;;;;;5039135;28;20052;-66
2023/05/30 12:30:18;;;;;;;3.35;2.40;;;14.90;99.90;;;;;;5069472;28;20557;-68
2023/05/30 12:32:47;;;;;;;5.03;2.67;;;14.90;99.90;;;;;;5049141;28;20037;-66
2023/05/30 12:35:13;;;;;;;4.93;2.33;;;14.90;99.90;;;;;;5043838;28;20518;-67
2023/05/30 12:37:39;;;;;;;5.22;2.00;;;15.00;99.90;;;;;;5029430;28;20037;-66
2023/05/30 12:40:06;;;;;;;4.80;2.90;;;14.90;99.90;;;;;;5046430;28;20041;-67
2023/05/30 12:42:33;;;;;;;7.30;2.50;;;14.80;99.90;;;;;;5046285;28;20448;-68
2023/05/30 12:45:01;;;;;;;5.15;2.40;;;14.70;99.90;;;;;;5049663;28;20140;-68